createdAt,value
2019-03-05T00:04:31.371Z,54.06
2019-03-05T00:09:33.465Z,53.90
2019-03-05T00:14:35.579Z,53.79
2019-03-05T00:19:38.101Z,53.65
2019-03-05T00:25:08.258Z,53.57
2019-03-05T00:30:18.518Z,53.59
2019-03-05T00:35:54.303Z,53.54
2019-03-05T00:41:01.656Z,53.45
2019-03-05T00:46:29.776Z,53.31
2019-03-05T00:52:04.423Z,53.21
2019-03-05T00:57:31.759Z,53.06
2019-03-05T01:02:55.683Z,52.85
2019-03-05T01:07:57.725Z,52.43
2019-03-05T01:12:59.922Z,52.30
2019-03-05T01:18:02.052Z,52.37
2019-03-05T01:23:04.446Z,52.31
2019-03-05T01:28:06.766Z,52.57
2019-03-05T01:33:12.518Z,52.50
2019-03-05T01:38:14.580Z,52.59
2019-03-05T01:43:16.656Z,52.88
2019-03-05T01:48:18.704Z,52.63
2019-03-05T01:53:20.836Z,52.58
2019-03-05T01:58:22.895Z,52.53
2019-03-05T02:03:25.467Z,52.54
2019-03-05T02:08:27.585Z,52.50
2019-03-05T02:13:29.764Z,52.94
2019-03-05T02:18:31.862Z,53.15
2019-03-05T02:24:01.604Z,53.28
2019-03-05T02:29:22.813Z,53.23
2019-03-05T02:35:01.767Z,53.45
2019-03-05T02:40:23.309Z,53.41
2019-03-05T02:45:36.678Z,53.49
2019-03-05T02:51:10.745Z,53.66
2019-03-05T02:56:42.879Z,53.81
2019-03-05T03:02:04.615Z,53.93
2019-03-05T03:07:06.681Z,54.13
2019-03-05T03:12:08.807Z,54.07
2019-03-05T03:17:10.931Z,54.25
2019-03-05T03:22:13.032Z,54.16
2019-03-05T03:27:15.137Z,54.21
2019-03-05T03:32:17.305Z,54.09
2019-03-05T03:37:19.385Z,54.13
2019-03-05T03:42:21.680Z,54.13
2019-03-05T03:47:23.697Z,54.13
2019-03-05T03:52:27.440Z,54.02
2019-03-05T03:57:31.812Z,53.89
2019-03-05T04:02:34.079Z,53.75
2019-03-05T04:07:36.230Z,53.53
2019-03-05T04:12:38.308Z,53.24
2019-03-05T04:17:40.749Z,52.89
2019-03-05T04:22:43.577Z,52.78
2019-03-05T04:27:46.428Z,52.45
2019-03-05T04:32:48.494Z,52.07
2019-03-05T04:37:50.618Z,52.19
2019-03-05T04:42:52.660Z,51.92
2019-03-05T04:47:54.759Z,51.86
2019-03-05T04:52:56.873Z,51.84
2019-03-05T04:57:59.353Z,51.73
2019-03-05T05:03:01.558Z,51.54
2019-03-05T05:08:03.716Z,51.59
2019-03-05T05:13:05.815Z,51.78
2019-03-05T05:18:07.916Z,53.26
2019-03-05T05:23:09.982Z,53.90
2019-03-05T05:28:12.068Z,53.75
2019-03-05T05:33:14.441Z,53.43
2019-03-05T05:38:16.545Z,53.28
2019-03-05T05:43:21.566Z,53.11
2019-03-05T05:48:23.634Z,52.63
2019-03-05T05:53:25.758Z,52.41
2019-03-05T05:58:27.892Z,52.24
2019-03-05T06:03:29.995Z,52.36
2019-03-05T06:08:34.221Z,52.38
2019-03-05T06:13:38.139Z,52.59
2019-03-05T06:18:40.099Z,52.52
2019-03-05T06:23:42.680Z,52.59
2019-03-05T06:28:44.743Z,52.41
2019-03-05T06:33:46.875Z,52.42
2019-03-05T06:38:49.001Z,52.36
2019-03-05T06:43:52.170Z,52.24
2019-03-05T06:48:54.287Z,52.21
2019-03-05T06:53:56.366Z,52.21
2019-03-05T06:58:58.463Z,52.17
2019-03-05T07:04:00.503Z,52.10
2019-03-05T07:09:08.481Z,51.89
2019-03-05T07:14:16.374Z,51.80
2019-03-05T07:19:29.907Z,51.70
2019-03-05T07:24:48.505Z,51.62
2019-03-05T07:29:50.655Z,51.52
2019-03-05T07:34:52.684Z,51.28
2019-03-05T07:39:54.770Z,51.45
2019-03-05T07:44:56.869Z,50.85
2019-03-05T07:49:59.018Z,49.85
2019-03-05T07:55:12.975Z,49.60
2019-03-05T08:00:08.581Z,48.31
2019-03-05T08:05:12.079Z,48.64
2019-03-05T08:10:21.612Z,48.58
2019-03-05T08:15:40.386Z,48.39
2019-03-05T08:20:42.456Z,48.47
2019-03-05T08:25:44.528Z,48.72
2019-03-05T08:30:46.632Z,48.80
2019-03-05T08:35:48.756Z,49.25
2019-03-05T08:40:50.969Z,49.53
2019-03-05T08:45:53.233Z,49.45
2019-03-05T08:50:55.316Z,49.63
2019-03-05T08:55:57.404Z,49.82
2019-03-05T09:01:00.435Z,50.49
2019-03-05T09:06:02.497Z,50.59
2019-03-05T09:11:05.526Z,50.49
2019-03-05T09:16:09.479Z,50.46
2019-03-05T09:21:11.525Z,49.97
2019-03-05T09:26:13.596Z,49.36
2019-03-05T09:31:15.680Z,49.14
2019-03-05T09:36:17.723Z,48.85
2019-03-05T09:41:19.764Z,48.90
2019-03-05T09:46:21.808Z,48.55
2019-03-05T09:51:23.887Z,48.25
2019-03-05T09:56:27.904Z,47.81
2019-03-05T10:01:30.207Z,47.65
2019-03-05T10:06:32.266Z,47.84
2019-03-05T10:11:34.313Z,47.53
2019-03-05T10:16:36.577Z,47.35
2019-03-05T10:21:46.146Z,47.10
2019-03-05T10:26:42.566Z,46.69
2019-03-05T10:31:44.638Z,46.90
2019-03-05T10:36:46.675Z,46.40
2019-03-05T10:41:48.700Z,45.66
2019-03-05T10:46:50.764Z,46.02
2019-03-05T10:51:52.789Z,45.80
2019-03-05T10:56:54.859Z,45.51
2019-03-05T11:01:57.000Z,45.96
2019-03-05T11:06:59.353Z,46.58
2019-03-05T11:12:01.744Z,46.69
2019-03-05T11:17:03.794Z,47.28
2019-03-05T11:22:06.465Z,47.78
2019-03-05T11:27:08.638Z,48.07
2019-03-05T11:32:10.949Z,47.82
2019-03-05T11:37:13.249Z,47.87
2019-03-05T11:42:15.364Z,47.96
2019-03-05T11:47:17.449Z,48.21
2019-03-05T11:52:19.550Z,48.46
2019-03-05T11:57:21.541Z,48.90
2019-03-05T12:02:23.615Z,49.22
2019-03-05T12:07:25.678Z,49.32
2019-03-05T12:12:27.677Z,49.56
2019-03-05T12:17:29.769Z,49.79
2019-03-05T12:22:32.511Z,49.94
2019-03-05T12:27:35.955Z,50.01
2019-03-05T12:32:38.279Z,49.82
2019-03-05T12:37:40.419Z,49.67
2019-03-05T12:42:44.316Z,49.45
2019-03-05T12:47:46.384Z,49.54
2019-03-05T12:52:49.470Z,49.64
2019-03-05T12:57:51.619Z,49.47
2019-03-05T13:02:53.812Z,49.05
2019-03-05T13:07:56.456Z,48.82
2019-03-05T13:12:59.753Z,48.79
2019-03-05T13:18:03.088Z,48.97
2019-03-05T13:23:09.446Z,49.40
2019-03-05T13:28:09.160Z,49.40
2019-03-05T13:33:11.226Z,49.78
2019-03-05T13:38:13.396Z,49.93
2019-03-05T13:43:15.462Z,49.99
2019-03-05T13:49:07.554Z,49.58
2019-03-05T13:54:48.525Z,49.00
2019-03-05T13:59:50.137Z,48.72
2019-03-05T14:05:13.180Z,48.62
2019-03-05T14:10:15.815Z,48.07
2019-03-05T14:15:18.920Z,47.33
2019-03-05T14:20:31.502Z,47.00
2019-03-05T14:25:24.966Z,46.72
2019-03-05T14:30:27.188Z,46.48
2019-03-05T14:35:31.036Z,46.48
2019-03-05T14:40:33.473Z,46.47
2019-03-05T14:45:36.132Z,46.35
2019-03-05T14:50:41.604Z,46.35
2019-03-05T14:55:43.900Z,47.33
2019-03-05T15:00:46.068Z,49.56
2019-03-05T15:05:48.200Z,50.17
2019-03-05T15:10:50.368Z,50.76
2019-03-05T15:15:52.714Z,51.31
2019-03-05T15:20:54.769Z,51.49
2019-03-05T15:25:56.951Z,51.46
2019-03-05T15:30:59.231Z,51.12
2019-03-05T15:36:01.311Z,51.35
2019-03-05T15:41:03.411Z,50.72
2019-03-05T15:46:05.538Z,50.46
2019-03-05T15:51:07.577Z,49.53
2019-03-05T15:56:09.717Z,49.22
2019-03-05T16:01:18.855Z,48.93
2019-03-05T16:06:16.180Z,48.47
2019-03-05T16:11:18.568Z,48.29
2019-03-05T16:16:20.652Z,48.49
2019-03-05T16:21:22.749Z,48.24
2019-03-05T16:26:24.879Z,48.37
2019-03-05T16:31:49.759Z,48.51
2019-03-05T16:37:12.402Z,48.51
2019-03-05T16:42:32.261Z,48.39
2019-03-05T16:47:53.615Z,48.78
2019-03-05T16:53:08.421Z,48.74
2019-03-05T16:58:24.920Z,49.05
2019-03-05T17:03:45.279Z,49.11
2019-03-05T17:09:12.685Z,49.55
2019-03-05T17:14:14.727Z,49.57
2019-03-05T17:19:16.824Z,49.57
2019-03-05T17:24:19.105Z,49.25
2019-03-05T17:29:21.178Z,49.23
2019-03-05T17:34:23.271Z,49.35
2019-03-05T17:39:25.630Z,49.15
2019-03-05T17:44:27.678Z,49.06
2019-03-05T17:49:29.773Z,49.09
2019-03-05T17:54:31.907Z,49.06
2019-03-05T17:59:33.926Z,48.94
2019-03-05T18:04:36.042Z,48.73
2019-03-05T18:09:38.197Z,48.76
2019-03-05T18:14:40.352Z,48.81
2019-03-05T18:19:42.913Z,48.81
2019-03-05T18:24:44.963Z,48.82
2019-03-05T18:29:47.025Z,48.77
2019-03-05T18:34:49.080Z,48.87
2019-03-05T18:39:51.148Z,49.11
2019-03-05T18:44:53.203Z,48.85
2019-03-05T18:49:55.554Z,48.98
2019-03-05T18:54:57.597Z,48.97
2019-03-05T18:59:59.661Z,49.01
2019-03-05T19:05:01.787Z,48.88
2019-03-05T19:10:05.466Z,48.97
2019-03-05T19:15:08.781Z,49.14
2019-03-05T19:20:13.873Z,49.49
2019-03-05T19:25:18.170Z,49.49
2019-03-05T19:30:31.199Z,49.57
2019-03-05T19:35:33.291Z,49.81
2019-03-05T19:40:35.359Z,49.65
2019-03-05T19:45:37.443Z,49.87
2019-03-05T19:50:39.476Z,49.88
2019-03-05T19:55:41.633Z,50.22
2019-03-05T20:01:03.887Z,50.98
2019-03-05T20:06:05.941Z,51.74
2019-03-05T20:11:08.012Z,52.65
2019-03-05T20:16:11.848Z,53.25
2019-03-05T20:21:13.906Z,53.79
2019-03-05T20:26:15.952Z,53.89
2019-03-05T20:31:17.989Z,54.22
2019-03-05T20:36:20.063Z,54.45
2019-03-05T20:41:22.113Z,54.49
2019-03-05T20:46:26.123Z,54.65
2019-03-05T20:51:28.237Z,54.68
2019-03-05T20:56:32.911Z,54.91
2019-03-05T21:01:34.990Z,54.90
2019-03-05T21:06:37.364Z,55.46
2019-03-05T21:11:39.466Z,55.39
2019-03-05T21:16:41.558Z,55.59
2019-03-05T21:21:43.647Z,55.60
2019-03-05T21:26:45.771Z,56.00
2019-03-05T21:31:49.886Z,56.15
2019-03-05T21:36:51.758Z,56.20
2019-03-05T21:41:53.826Z,56.33
2019-03-05T21:46:55.914Z,56.67
2019-03-05T21:51:57.937Z,56.75
2019-03-05T21:56:59.990Z,56.75
2019-03-05T22:02:02.247Z,56.60
2019-03-05T22:07:04.310Z,56.74
2019-03-05T22:12:06.351Z,56.80
2019-03-05T22:17:08.389Z,56.96
2019-03-05T22:22:10.719Z,56.85
2019-03-05T22:27:12.795Z,56.84
2019-03-05T22:32:14.853Z,56.94
2019-03-05T22:37:16.893Z,57.11
2019-03-05T22:42:18.947Z,57.34
2019-03-05T22:47:22.934Z,57.51
2019-03-05T22:52:25.106Z,57.34
2019-03-05T22:57:27.166Z,57.70
2019-03-05T23:02:29.303Z,57.74
2019-03-05T23:07:31.378Z,57.76
2019-03-05T23:12:33.410Z,57.68
2019-03-05T23:17:35.481Z,57.92
2019-03-05T23:22:37.707Z,58.01
2019-03-05T23:27:39.753Z,57.56
2019-03-05T23:32:41.793Z,57.74
2019-03-05T23:37:44.607Z,57.62
2019-03-05T23:42:46.664Z,57.66
2019-03-05T23:47:48.751Z,57.67
2019-03-05T23:52:50.804Z,57.81
2019-03-05T23:57:52.870Z,58.04
